createdAt,value
2023-03-26T00:02:17.169Z,44.43
2023-03-26T00:04:46.872Z,44.57
2023-03-26T00:07:14.578Z,44.80
2023-03-26T00:09:49.387Z,45.13
2023-03-26T00:12:16.865Z,44.92
2023-03-26T00:14:44.061Z,44.70
2023-03-26T00:17:11.377Z,44.97
2023-03-26T00:19:39.331Z,44.95
2023-03-26T00:22:13.714Z,46.20
2023-03-26T00:24:41.089Z,46.54
2023-03-26T00:27:09.014Z,49.31
2023-03-26T00:29:36.245Z,48.83
2023-03-26T00:32:08.983Z,48.17
2023-03-26T00:34:41.754Z,49.04
2023-03-26T00:37:09.128Z,50.54
2023-03-26T00:39:37.591Z,51.29
2023-03-26T00:42:07.158Z,51.22
2023-03-26T00:44:37.051Z,50.52
2023-03-26T00:47:04.452Z,50.13
2023-03-26T00:49:32.900Z,50.19
2023-03-26T00:52:03.388Z,50.19
2023-03-26T00:54:35.616Z,50.38
2023-03-26T00:57:03.341Z,52.06
2023-03-26T01:02:36.350Z,50.95
2023-03-26T01:05:34.103Z,51.52
2023-03-26T01:08:33.492Z,52.13
2023-03-26T01:11:22.681Z,53.35
2023-03-26T01:14:26.974Z,52.54
2023-03-26T01:16:56.594Z,51.68
2023-03-26T01:19:45.283Z,51.37
2023-03-26T01:22:19.167Z,51.64
2023-03-26T01:24:53.483Z,51.21
2023-03-26T01:27:24.870Z,51.59
2023-03-26T01:30:04.122Z,51.25
2023-03-26T01:32:47.746Z,51.08
2023-03-26T01:35:27.908Z,51.56
2023-03-26T01:38:02.750Z,52.17
2023-03-26T01:40:43.457Z,53.44
2023-03-26T01:43:25.855Z,53.75
2023-03-26T01:45:56.621Z,54.22
2023-03-26T01:48:49.936Z,52.86
2023-03-26T01:51:31.189Z,53.01
2023-03-26T01:53:58.715Z,51.87
2023-03-26T01:56:40.298Z,52.28
2023-03-26T01:59:10.556Z,52.29
2023-03-26T02:02:02.636Z,52.63
2023-03-26T02:04:55.205Z,53.11
2023-03-26T02:07:34.978Z,53.48
2023-03-26T02:10:10.762Z,52.88
2023-03-26T02:12:41.955Z,52.88
2023-03-26T02:15:10.050Z,52.79
2023-03-26T02:17:40.469Z,52.54
2023-03-26T02:20:10.734Z,54.07
2023-03-26T02:22:41.704Z,53.64
2023-03-26T02:25:13.362Z,53.38
2023-03-26T02:27:41.088Z,53.59
2023-03-26T02:30:16.464Z,53.03
2023-03-26T02:32:54.268Z,52.75
2023-03-26T02:35:23.945Z,52.18
2023-03-26T02:37:58.076Z,52.16
2023-03-26T02:40:26.052Z,52.09
2023-03-26T02:42:53.751Z,51.64
2023-03-26T02:45:22.290Z,51.35
2023-03-26T02:47:51.241Z,51.76
2023-03-26T02:50:56.848Z,53.12
2023-03-26T02:53:47.686Z,52.34
2023-03-26T02:56:38.094Z,52.24
2023-03-26T02:59:37.408Z,51.73
2023-03-26T03:02:40.098Z,51.43
2023-03-26T03:05:31.638Z,50.96
2023-03-26T03:08:20.883Z,51.09
2023-03-26T03:11:25.363Z,50.61
2023-03-26T03:13:54.916Z,50.18
2023-03-26T03:16:25.341Z,50.11
2023-03-26T03:18:57.992Z,49.95
2023-03-26T03:21:37.531Z,49.78
2023-03-26T03:24:05.210Z,49.81
2023-03-26T03:26:36.739Z,49.57
2023-03-26T03:29:16.317Z,49.53
2023-03-26T03:31:43.749Z,49.39
2023-03-26T03:34:23.657Z,48.94
2023-03-26T03:36:51.785Z,49.02
2023-03-26T03:39:36.017Z,49.00
2023-03-26T03:42:03.656Z,49.18
2023-03-26T03:44:30.989Z,49.22
2023-03-26T03:46:59.018Z,48.96
2023-03-26T03:49:26.610Z,48.86
2023-03-26T03:51:58.873Z,48.94
2023-03-26T03:54:32.667Z,48.91
2023-03-26T03:57:09.137Z,49.55
2023-03-26T03:59:48.027Z,49.26
2023-03-26T04:02:28.621Z,49.18
2023-03-26T04:04:59.255Z,49.28
2023-03-26T04:07:31.406Z,49.11
2023-03-26T04:10:09.634Z,49.44
2023-03-26T04:12:55.495Z,49.26
2023-03-26T04:15:42.290Z,49.49
2023-03-26T04:18:10.898Z,49.37
2023-03-26T04:20:46.695Z,49.19
2023-03-26T04:23:21.269Z,49.56
2023-03-26T04:25:54.827Z,49.34
2023-03-26T04:28:54.725Z,49.53
2023-03-26T04:31:29.678Z,49.38
2023-03-26T04:34:13.809Z,49.55
2023-03-26T04:36:54.766Z,49.59
2023-03-26T04:39:29.607Z,49.57
2023-03-26T04:42:20.157Z,49.42
2023-03-26T04:45:08.031Z,49.88
2023-03-26T04:47:37.272Z,49.57
2023-03-26T04:50:07.639Z,49.69
2023-03-26T04:52:37.308Z,49.69
2023-03-26T04:55:30.222Z,49.67
2023-03-26T04:58:06.112Z,49.77
2023-03-26T05:00:55.395Z,49.68
2023-03-26T05:03:25.879Z,49.78
2023-03-26T05:05:55.732Z,49.65
2023-03-26T05:08:23.322Z,49.94
2023-03-26T05:10:50.702Z,49.92
2023-03-26T05:13:28.372Z,49.98
2023-03-26T05:15:58.111Z,50.00
2023-03-26T05:18:51.876Z,49.82
2023-03-26T05:21:19.940Z,49.72
2023-03-26T05:23:47.130Z,49.80
2023-03-26T05:26:23.623Z,49.75
2023-03-26T05:28:52.751Z,49.59
2023-03-26T05:31:33.915Z,49.48
2023-03-26T05:34:04.018Z,49.47
2023-03-26T05:36:31.786Z,49.48
2023-03-26T05:39:09.961Z,49.42
2023-03-26T05:41:56.078Z,49.46
2023-03-26T05:44:30.247Z,49.42
2023-03-26T05:47:00.474Z,49.74
2023-03-26T05:49:28.675Z,49.47
2023-03-26T05:51:55.963Z,49.63
2023-03-26T05:54:42.940Z,49.80
2023-03-26T05:57:33.522Z,49.59
2023-03-26T06:00:22.089Z,49.44
2023-03-26T06:02:56.617Z,49.57
2023-03-26T06:05:45.643Z,49.50
2023-03-26T06:08:21.668Z,49.10
2023-03-26T06:10:51.735Z,48.83
2023-03-26T06:13:19.739Z,49.15
2023-03-26T06:15:51.503Z,49.42
2023-03-26T06:18:45.306Z,49.24
2023-03-26T06:21:29.759Z,49.27
2023-03-26T06:24:05.508Z,48.88
2023-03-26T06:26:46.710Z,48.74
2023-03-26T06:29:32.933Z,48.75
2023-03-26T06:32:20.013Z,48.91
2023-03-26T06:35:20.097Z,48.81
2023-03-26T06:37:47.503Z,48.79
2023-03-26T06:40:15.945Z,48.62
2023-03-26T06:43:09.374Z,48.73
2023-03-26T06:46:16.555Z,48.83
2023-03-26T06:49:28.515Z,49.36
2023-03-26T06:52:18.328Z,49.17
2023-03-26T06:55:12.576Z,48.55
2023-03-26T06:57:54.985Z,48.49
2023-03-26T07:00:43.198Z,48.15
2023-03-26T07:03:33.591Z,47.89
2023-03-26T07:06:19.555Z,48.14
2023-03-26T07:09:05.651Z,47.50
2023-03-26T07:11:58.040Z,47.17
2023-03-26T07:14:47.033Z,46.66
2023-03-26T07:17:43.789Z,46.61
2023-03-26T07:20:23.035Z,46.25
2023-03-26T07:22:51.428Z,45.61
2023-03-26T07:25:45.698Z,45.28
2023-03-26T07:28:27.289Z,45.72
2023-03-26T07:31:38.273Z,44.97
2023-03-26T07:34:50.379Z,43.86
2023-03-26T07:38:27.424Z,43.42
2023-03-26T07:41:22.997Z,43.32
2023-03-26T07:44:18.664Z,42.94
2023-03-26T07:47:26.287Z,43.05
2023-03-26T07:50:24.240Z,42.31
2023-03-26T07:53:12.814Z,42.31
2023-03-26T07:56:16.491Z,41.64
2023-03-26T07:59:15.959Z,41.56
2023-03-26T08:02:44.330Z,40.84
2023-03-26T08:06:23.696Z,40.31
2023-03-26T08:09:14.884Z,40.73
2023-03-26T08:12:30.979Z,40.11
2023-03-26T08:15:11.373Z,39.74
2023-03-26T08:17:38.608Z,39.87
2023-03-26T08:20:36.712Z,39.07
2023-03-26T08:23:30.469Z,39.86
2023-03-26T08:26:06.286Z,38.67
2023-03-26T08:29:02.261Z,38.37
2023-03-26T08:31:35.918Z,37.81
2023-03-26T08:34:09.750Z,37.58
2023-03-26T08:36:41.093Z,37.87
2023-03-26T08:39:13.290Z,37.75
2023-03-26T08:41:59.447Z,37.75
2023-03-26T08:45:12.531Z,36.66
2023-03-26T08:48:19.660Z,36.42
2023-03-26T08:51:29.535Z,36.05
2023-03-26T08:55:01.054Z,35.52
2023-03-26T08:58:05.560Z,35.00
2023-03-26T09:01:10.007Z,34.20
2023-03-26T09:03:52.515Z,34.71
2023-03-26T09:06:46.922Z,34.35
2023-03-26T09:09:54.939Z,33.74
2023-03-26T09:12:50.734Z,33.00
2023-03-26T09:15:46.036Z,33.04
2023-03-26T09:18:47.493Z,32.67
2023-03-26T09:21:58.638Z,32.36
2023-03-26T09:25:00.855Z,31.81
2023-03-26T09:28:22.412Z,32.17
2023-03-26T09:31:12.072Z,32.13
2023-03-26T09:34:13.211Z,32.70
2023-03-26T09:37:16.685Z,32.51
2023-03-26T09:40:39.205Z,32.75
2023-03-26T09:44:02.177Z,32.57
2023-03-26T09:46:46.150Z,33.66
2023-03-26T09:49:50.933Z,32.83
2023-03-26T09:53:07.731Z,32.63
2023-03-26T09:56:06.234Z,31.95
2023-03-26T09:58:54.266Z,31.87
2023-03-26T10:01:51.112Z,30.78
2023-03-26T10:05:08.252Z,29.72
2023-03-26T10:08:20.528Z,29.76
2023-03-26T10:11:18.211Z,28.89
2023-03-26T10:14:18.818Z,28.67
2023-03-26T10:17:16.449Z,28.66
2023-03-26T10:20:34.751Z,27.67
2023-03-26T10:24:16.761Z,29.67
2023-03-26T10:27:11.354Z,31.17
2023-03-26T10:30:10.037Z,32.23
2023-03-26T10:33:35.047Z,32.70
2023-03-26T10:36:30.045Z,33.14
2023-03-26T10:39:54.885Z,34.43
2023-03-26T10:42:52.922Z,34.80
2023-03-26T10:45:33.481Z,35.15
2023-03-26T10:49:08.021Z,35.74
2023-03-26T10:52:12.415Z,35.14
2023-03-26T10:55:12.370Z,34.51
2023-03-26T10:57:45.101Z,34.55
2023-03-26T11:00:21.810Z,33.72
2023-03-26T11:03:44.277Z,32.15
2023-03-26T11:06:32.735Z,30.96
2023-03-26T11:09:21.884Z,30.48
2023-03-26T11:12:32.059Z,29.96
2023-03-26T11:15:37.872Z,29.80
2023-03-26T11:18:12.163Z,30.48
2023-03-26T11:21:20.666Z,31.00
2023-03-26T11:24:23.216Z,30.54
2023-03-26T11:27:19.723Z,30.50
2023-03-26T11:30:18.588Z,30.15
2023-03-26T11:33:06.752Z,29.65
2023-03-26T11:36:01.654Z,28.10
2023-03-26T11:38:39.550Z,26.81
2023-03-26T11:41:46.934Z,25.99
2023-03-26T11:44:58.792Z,25.59
2023-03-26T11:48:11.919Z,25.13
2023-03-26T11:50:58.514Z,25.09
2023-03-26T11:53:34.784Z,24.40
2023-03-26T11:56:32.106Z,24.01
2023-03-26T11:59:21.799Z,23.54
2023-03-26T12:02:13.537Z,23.14
2023-03-26T12:04:51.092Z,24.38
2023-03-26T12:07:35.570Z,24.34
2023-03-26T12:10:32.667Z,23.76
2023-03-26T12:13:32.488Z,23.26
2023-03-26T12:16:14.828Z,24.05
2023-03-26T12:19:00.692Z,23.60
2023-03-26T12:21:34.782Z,23.87
2023-03-26T12:24:24.647Z,23.74
2023-03-26T12:27:38.293Z,23.17
2023-03-26T12:30:34.249Z,23.33
2023-03-26T12:33:26.943Z,22.82
2023-03-26T12:36:01.424Z,23.27
2023-03-26T12:39:16.353Z,22.97
2023-03-26T12:44:49.664Z,22.65
2023-03-26T12:48:44.706Z,21.57
2023-03-26T12:51:26.660Z,20.69
2023-03-26T12:54:16.362Z,20.92
2023-03-26T12:57:12.624Z,20.69
2023-03-26T12:59:53.916Z,19.80
2023-03-26T13:02:25.503Z,20.41
2023-03-26T13:05:19.859Z,19.98
2023-03-26T13:08:11.237Z,21.88
2023-03-26T13:11:02.554Z,21.34
2023-03-26T13:13:59.811Z,20.04
2023-03-26T13:17:06.260Z,20.01
2023-03-26T13:19:51.702Z,19.23
2023-03-26T13:22:47.320Z,19.11
2023-03-26T13:25:42.921Z,18.65
2023-03-26T13:28:40.140Z,18.76
2023-03-26T13:31:28.975Z,18.61
2023-03-26T13:34:15.031Z,18.63
2023-03-26T13:37:14.763Z,18.81
2023-03-26T13:40:19.893Z,18.24
2023-03-26T13:43:24.577Z,18.44
2023-03-26T13:46:30.804Z,18.25
2023-03-26T13:49:09.267Z,17.35
2023-03-26T13:51:55.117Z,17.39
2023-03-26T13:54:41.765Z,16.96
2023-03-26T13:57:41.646Z,16.33
2023-03-26T14:00:41.394Z,16.87
2023-03-26T14:03:21.135Z,15.88
2023-03-26T14:05:57.759Z,15.58
2023-03-26T14:08:50.959Z,16.32
2023-03-26T14:11:28.846Z,15.77
2023-03-26T14:14:28.202Z,15.17
2023-03-26T14:17:05.066Z,15.78
2023-03-26T14:19:47.834Z,16.01
2023-03-26T14:22:51.847Z,15.40
2023-03-26T14:25:56.508Z,15.27
2023-03-26T14:28:53.831Z,15.76
2023-03-26T14:32:05.865Z,15.01
2023-03-26T14:35:20.436Z,15.64
2023-03-26T14:38:31.508Z,14.99
2023-03-26T14:41:35.374Z,15.51
2023-03-26T14:44:48.819Z,15.27
2023-03-26T14:47:25.184Z,14.89
2023-03-26T14:49:59.485Z,15.02
2023-03-26T14:52:47.354Z,14.97
2023-03-26T14:55:31.741Z,14.91
2023-03-26T14:58:35.739Z,14.15
2023-03-26T15:04:41.539Z,14.11
2023-03-26T15:07:50.419Z,13.41
2023-03-26T15:10:58.472Z,13.09
2023-03-26T15:14:07.889Z,16.03
2023-03-26T15:17:08.249Z,22.22
2023-03-26T15:20:10.767Z,20.34
2023-03-26T15:23:24.823Z,22.71
2023-03-26T15:26:36.020Z,28.40
2023-03-26T15:33:06.015Z,30.09
2023-03-26T15:36:07.447Z,31.46
2023-03-26T15:39:33.675Z,31.34
2023-03-26T15:42:31.054Z,31.68
2023-03-26T15:45:34.521Z,31.71
2023-03-26T15:51:52.577Z,32.80
2023-03-26T15:54:36.761Z,32.92
2023-03-26T15:57:17.003Z,32.89
2023-03-26T16:00:25.533Z,34.68
2023-03-26T16:03:14.384Z,34.08
2023-03-26T16:06:12.791Z,34.57
2023-03-26T16:09:49.595Z,33.93
2023-03-26T16:12:47.093Z,34.18
2023-03-26T16:15:39.983Z,34.23
2023-03-26T16:18:33.194Z,34.94
2023-03-26T16:21:37.371Z,36.04
2023-03-26T16:24:27.190Z,35.87
2023-03-26T16:27:34.109Z,36.58
2023-03-26T16:30:42.422Z,36.82
2023-03-26T16:34:03.528Z,38.69
2023-03-26T16:36:50.225Z,39.08
2023-03-26T16:39:45.315Z,38.56
2023-03-26T16:43:01.658Z,40.20
2023-03-26T16:45:38.980Z,39.86
2023-03-26T16:48:24.130Z,39.62
2023-03-26T16:51:16.556Z,38.75
2023-03-26T16:54:38.287Z,39.45
2023-03-26T16:57:45.428Z,40.94
2023-03-26T17:00:47.533Z,41.48
2023-03-26T17:03:48.284Z,41.19
2023-03-26T17:06:56.326Z,41.93
2023-03-26T17:09:49.804Z,41.90
2023-03-26T17:12:57.948Z,41.33
2023-03-26T17:15:36.794Z,41.24
2023-03-26T17:18:40.158Z,42.54
2023-03-26T17:21:58.933Z,42.85
2023-03-26T17:25:15.134Z,43.60
2023-03-26T17:28:41.775Z,43.38
2023-03-26T17:31:56.612Z,43.31
2023-03-26T17:34:55.206Z,44.06
2023-03-26T17:37:43.738Z,44.14
2023-03-26T17:40:45.738Z,43.96
2023-03-26T17:43:44.004Z,44.78
2023-03-26T17:46:24.418Z,44.77
2023-03-26T17:49:13.157Z,45.79
2023-03-26T17:52:20.583Z,45.01
2023-03-26T17:55:02.556Z,44.41
2023-03-26T17:58:01.729Z,44.72
2023-03-26T18:04:08.668Z,45.54
2023-03-26T18:07:15.633Z,46.02
2023-03-26T18:10:08.928Z,45.54
2023-03-26T18:12:54.773Z,45.63
2023-03-26T18:16:06.863Z,45.93
2023-03-26T18:18:51.349Z,45.82
2023-03-26T18:21:30.929Z,45.67
2023-03-26T18:24:07.207Z,45.46
2023-03-26T18:27:04.296Z,46.42
2023-03-26T18:30:03.589Z,46.85
2023-03-26T18:33:00.070Z,46.44
2023-03-26T18:35:55.805Z,46.86
2023-03-26T18:38:45.499Z,46.37
2023-03-26T18:41:39.618Z,47.07
2023-03-26T18:44:13.325Z,47.23
2023-03-26T18:46:55.934Z,46.33
2023-03-26T18:49:32.352Z,46.78
2023-03-26T18:52:10.196Z,47.12
2023-03-26T18:54:49.112Z,47.00
2023-03-26T18:57:40.614Z,46.57
2023-03-26T19:00:38.719Z,46.32
2023-03-26T19:03:21.293Z,47.07
2023-03-26T19:06:04.274Z,47.97
2023-03-26T19:08:47.003Z,46.53
2023-03-26T19:11:25.970Z,46.69
2023-03-26T19:14:20.666Z,48.45
2023-03-26T19:17:05.545Z,47.69
2023-03-26T19:19:53.796Z,47.57
2023-03-26T19:22:45.818Z,47.14
2023-03-26T19:26:00.615Z,47.11
2023-03-26T19:28:33.573Z,47.58
2023-03-26T19:31:24.676Z,46.94
2023-03-26T19:34:23.643Z,46.86
2023-03-26T19:37:19.379Z,46.77
2023-03-26T19:40:21.413Z,46.09
2023-03-26T19:42:54.046Z,46.29
2023-03-26T19:45:34.516Z,46.26
2023-03-26T19:48:14.162Z,46.73
2023-03-26T19:51:20.301Z,47.24
2023-03-26T19:53:55.234Z,46.86
2023-03-26T19:56:31.193Z,46.01
2023-03-26T19:58:59.418Z,46.33
2023-03-26T20:01:36.080Z,46.21
2023-03-26T20:04:21.599Z,46.44
2023-03-26T20:06:50.226Z,46.69
2023-03-26T20:09:27.012Z,47.08
2023-03-26T20:11:56.662Z,46.66
2023-03-26T20:17:13.595Z,47.12
2023-03-26T20:19:42.136Z,46.72
2023-03-26T20:22:20.209Z,46.99
2023-03-26T20:25:00.316Z,47.09
2023-03-26T20:27:30.178Z,46.65
2023-03-26T20:29:59.135Z,46.48
2023-03-26T20:32:27.530Z,45.83
2023-03-26T20:35:02.563Z,46.02
2023-03-26T20:37:32.339Z,39.16
2023-03-26T20:40:09.158Z,37.71
2023-03-26T20:42:36.488Z,32.47
2023-03-26T20:45:18.688Z,25.75
2023-03-26T20:47:49.909Z,25.01
2023-03-26T20:50:19.288Z,22.98
2023-03-26T20:52:49.603Z,22.76
2023-03-26T20:55:33.024Z,22.60
2023-03-26T20:58:01.364Z,21.12
2023-03-26T21:00:32.596Z,22.85
2023-03-26T21:03:00.441Z,21.38
2023-03-26T21:05:29.397Z,20.85
2023-03-26T21:07:59.578Z,20.88
2023-03-26T21:10:32.710Z,21.13
2023-03-26T21:13:24.509Z,19.88
2023-03-26T21:15:52.042Z,21.17
2023-03-26T21:18:21.595Z,21.22
2023-03-26T21:21:14.125Z,20.01
2023-03-26T21:24:08.347Z,20.17
2023-03-26T21:29:41.328Z,20.75
2023-03-26T21:32:12.707Z,20.26
2023-03-26T21:34:47.845Z,21.22
2023-03-26T21:37:27.217Z,20.39
2023-03-26T21:39:56.239Z,20.72
2023-03-26T21:42:29.926Z,20.61
2023-03-26T21:45:05.194Z,20.94
2023-03-26T21:47:38.382Z,21.54
2023-03-26T21:50:17.606Z,21.20
2023-03-26T21:52:52.363Z,21.32
2023-03-26T21:55:38.926Z,21.31
2023-03-26T21:58:11.164Z,20.96
2023-03-26T22:01:05.487Z,21.54
2023-03-26T22:04:06.147Z,21.58
2023-03-26T22:07:15.020Z,21.36
2023-03-26T22:09:43.814Z,22.18
2023-03-26T22:12:16.357Z,22.46
2023-03-26T22:14:43.714Z,22.45
2023-03-26T22:17:13.274Z,22.28
2023-03-26T22:19:45.477Z,22.15
2023-03-26T22:22:33.442Z,22.56
2023-03-26T22:25:05.545Z,22.77
2023-03-26T22:27:35.144Z,23.22
2023-03-26T22:30:28.889Z,22.72
2023-03-26T22:32:59.734Z,23.14
2023-03-26T22:35:27.807Z,23.36
2023-03-26T22:38:01.392Z,23.52
2023-03-26T22:40:34.978Z,23.53
2023-03-26T22:43:02.111Z,23.98
2023-03-26T22:45:49.621Z,24.14
2023-03-26T22:48:24.045Z,24.52
2023-03-26T22:51:09.606Z,24.49
2023-03-26T22:53:41.052Z,24.66
2023-03-26T22:56:18.532Z,25.27
2023-03-26T22:58:47.927Z,25.17
2023-03-26T23:01:26.537Z,25.42
2023-03-26T23:03:54.641Z,25.66
2023-03-26T23:06:21.896Z,25.82
2023-03-26T23:08:53.110Z,26.24
2023-03-26T23:11:22.345Z,26.25
2023-03-26T23:13:50.052Z,26.37
2023-03-26T23:16:18.385Z,26.56
2023-03-26T23:18:46.017Z,26.85
2023-03-26T23:21:16.231Z,26.66
2023-03-26T23:23:44.718Z,26.66
2023-03-26T23:26:12.218Z,26.95
2023-03-26T23:28:41.187Z,27.06
2023-03-26T23:31:13.077Z,26.76
2023-03-26T23:33:46.424Z,27.52
2023-03-26T23:36:19.860Z,27.62
2023-03-26T23:38:48.657Z,27.35
2023-03-26T23:41:18.140Z,28.02
2023-03-26T23:43:54.789Z,28.41
2023-03-26T23:46:31.083Z,27.81
2023-03-26T23:49:04.505Z,28.62
2023-03-26T23:51:35.179Z,28.98
2023-03-26T23:54:03.263Z,29.14
2023-03-26T23:56:30.431Z,28.86
2023-03-26T23:59:02.452Z,29.35
